sensor_id;sensor_type;location;lat;lon;timestamp;P1;durP1;ratioP1;P2;durP2;ratioP2
40044;SDS011;25735;48.122;11.422;2022-09-03T00:04:41;3.30;;;1.70;;
40044;SDS011;25735;48.122;11.422;2022-09-03T00:07:14;2.63;;;1.80;;
40044;SDS011;25735;48.122;11.422;2022-09-03T00:09:42;2.22;;;1.85;;
40044;SDS011;25735;48.122;11.422;2022-09-03T00:12:10;1.75;;;1.65;;
40044;SDS011;25735;48.122;11.422;2022-09-03T00:14:38;1.88;;;1.77;;
40044;SDS011;25735;48.122;11.422;2022-09-03T00:17:09;2.53;;;1.83;;
40044;SDS011;25735;48.122;11.422;2022-09-03T00:19:37;2.33;;;1.85;;
40044;SDS011;25735;48.122;11.422;2022-09-03T00:22:06;3.58;;;1.60;;
40044;SDS011;25735;48.122;11.422;2022-09-03T00:24:34;4.30;;;2.33;;
40044;SDS011;25735;48.122;11.422;2022-09-03T00:27:00;4.07;;;1.60;;
40044;SDS011;25735;48.122;11.422;2022-09-03T00:29:28;2.03;;;1.90;;
40044;SDS011;25735;48.122;11.422;2022-09-03T00:31:57;2.70;;;1.85;;
40044;SDS011;25735;48.122;11.422;2022-09-03T00:34:28;2.00;;;1.90;;
40044;SDS011;25735;48.122;11.422;2022-09-03T00:36:54;2.42;;;2.22;;
40044;SDS011;25735;48.122;11.422;2022-09-03T00:39:21;1.73;;;1.60;;
40044;SDS011;25735;48.122;11.422;2022-09-03T00:41:51;2.00;;;1.80;;
40044;SDS011;25735;48.122;11.422;2022-09-03T00:46:56;3.25;;;2.05;;
40044;SDS011;25735;48.122;11.422;2022-09-03T00:49:30;2.20;;;1.98;;
40044;SDS011;25735;48.122;11.422;2022-09-03T00:52:01;2.10;;;2.00;;
40044;SDS011;25735;48.122;11.422;2022-09-03T00:57:15;4.13;;;1.80;;
40044;SDS011;25735;48.122;11.422;2022-09-03T01:02:26;2.08;;;1.88;;
40044;SDS011;25735;48.122;11.422;2022-09-03T01:07:48;4.32;;;2.20;;
40044;SDS011;25735;48.122;11.422;2022-09-03T01:13:05;2.13;;;1.60;;
40044;SDS011;25735;48.122;11.422;2022-09-03T01:15:41;2.38;;;1.90;;
40044;SDS011;25735;48.122;11.422;2022-09-03T01:23:48;2.67;;;2.33;;
40044;SDS011;25735;48.122;11.422;2022-09-03T01:29:31;3.13;;;2.83;;
40044;SDS011;25735;48.122;11.422;2022-09-03T01:31:49;2.22;;;2.03;;
40044;SDS011;25735;48.122;11.422;2022-09-03T01:49:46;2.50;;;2.30;;
40044;SDS011;25735;48.122;11.422;2022-09-03T01:52:21;2.20;;;2.00;;
40044;SDS011;25735;48.122;11.422;2022-09-03T02:00:07;2.25;;;1.92;;
40044;SDS011;25735;48.122;11.422;2022-09-03T02:02:33;3.40;;;2.45;;
40044;SDS011;25735;48.122;11.422;2022-09-03T02:05:18;3.42;;;1.92;;
40044;SDS011;25735;48.122;11.422;2022-09-03T02:07:47;3.33;;;2.10;;
40044;SDS011;25735;48.122;11.422;2022-09-03T02:10:14;4.40;;;2.42;;
40044;SDS011;25735;48.122;11.422;2022-09-03T02:12:40;2.65;;;2.30;;
40044;SDS011;25735;48.122;11.422;2022-09-03T02:15:12;5.05;;;2.28;;
40044;SDS011;25735;48.122;11.422;2022-09-03T02:17:38;2.63;;;2.22;;
40044;SDS011;25735;48.122;11.422;2022-09-03T02:20:06;2.33;;;2.15;;
40044;SDS011;25735;48.122;11.422;2022-09-03T02:22:32;3.35;;;2.00;;
40044;SDS011;25735;48.122;11.422;2022-09-03T02:24:58;2.90;;;2.53;;
40044;SDS011;25735;48.122;11.422;2022-09-03T02:27:23;2.30;;;2.10;;
40044;SDS011;25735;48.122;11.422;2022-09-03T02:29:48;2.45;;;2.08;;
40044;SDS011;25735;48.122;11.422;2022-09-03T02:32:14;2.10;;;2.00;;
40044;SDS011;25735;48.122;11.422;2022-09-03T02:34:40;2.35;;;2.15;;
40044;SDS011;25735;48.122;11.422;2022-09-03T02:37:13;4.40;;;2.60;;
40044;SDS011;25735;48.122;11.422;2022-09-03T02:39:38;2.60;;;2.22;;
40044;SDS011;25735;48.122;11.422;2022-09-03T02:42:03;3.23;;;2.50;;
40044;SDS011;25735;48.122;11.422;2022-09-03T02:44:29;2.33;;;2.13;;
40044;SDS011;25735;48.122;11.422;2022-09-03T02:46:59;3.80;;;2.03;;
40044;SDS011;25735;48.122;11.422;2022-09-03T02:49:25;3.97;;;2.20;;
40044;SDS011;25735;48.122;11.422;2022-09-03T02:51:51;2.20;;;2.03;;
40044;SDS011;25735;48.122;11.422;2022-09-03T02:54:16;2.67;;;2.10;;
40044;SDS011;25735;48.122;11.422;2022-09-03T02:56:41;2.93;;;2.30;;
40044;SDS011;25735;48.122;11.422;2022-09-03T02:59:07;2.90;;;2.40;;
40044;SDS011;25735;48.122;11.422;2022-09-03T03:01:33;2.83;;;2.45;;
40044;SDS011;25735;48.122;11.422;2022-09-03T03:03:58;2.47;;;2.33;;
40044;SDS011;25735;48.122;11.422;2022-09-03T03:06:23;2.85;;;2.55;;
40044;SDS011;25735;48.122;11.422;2022-09-03T03:08:49;3.20;;;2.60;;
40044;SDS011;25735;48.122;11.422;2022-09-03T03:11:14;2.90;;;2.70;;
40044;SDS011;25735;48.122;11.422;2022-09-03T03:13:42;4.25;;;3.03;;
40044;SDS011;25735;48.122;11.422;2022-09-03T03:16:07;2.90;;;2.70;;
40044;SDS011;25735;48.122;11.422;2022-09-03T03:18:33;3.10;;;2.80;;
40044;SDS011;25735;48.122;11.422;2022-09-03T03:21:02;3.55;;;3.25;;
40044;SDS011;25735;48.122;11.422;2022-09-03T03:23:30;4.97;;;2.75;;
40044;SDS011;25735;48.122;11.422;2022-09-03T03:25:59;3.38;;;2.67;;
40044;SDS011;25735;48.122;11.422;2022-09-03T03:28:24;2.67;;;2.42;;
40044;SDS011;25735;48.122;11.422;2022-09-03T03:30:50;2.92;;;2.50;;
40044;SDS011;25735;48.122;11.422;2022-09-03T03:33:16;2.90;;;2.70;;
40044;SDS011;25735;48.122;11.422;2022-09-03T03:35:42;2.50;;;2.30;;
40044;SDS011;25735;48.122;11.422;2022-09-03T03:38:07;3.33;;;2.53;;
40044;SDS011;25735;48.122;11.422;2022-09-03T03:40:32;4.30;;;2.50;;
40044;SDS011;25735;48.122;11.422;2022-09-03T03:42:57;6.53;;;3.03;;
40044;SDS011;25735;48.122;11.422;2022-09-03T03:45:23;4.35;;;2.97;;
40044;SDS011;25735;48.122;11.422;2022-09-03T03:47:48;3.05;;;2.75;;
40044;SDS011;25735;48.122;11.422;2022-09-03T03:50:13;3.30;;;3.00;;
40044;SDS011;25735;48.122;11.422;2022-09-03T03:52:39;3.33;;;2.33;;
40044;SDS011;25735;48.122;11.422;2022-09-03T03:55:04;3.63;;;3.17;;
40044;SDS011;25735;48.122;11.422;2022-09-03T03:57:30;3.85;;;2.90;;
40044;SDS011;25735;48.122;11.422;2022-09-03T03:59:56;3.55;;;2.60;;
40044;SDS011;25735;48.122;11.422;2022-09-03T04:02:21;3.20;;;2.93;;
40044;SDS011;25735;48.122;11.422;2022-09-03T04:04:46;4.68;;;2.92;;
40044;SDS011;25735;48.122;11.422;2022-09-03T04:07:11;3.70;;;2.80;;
40044;SDS011;25735;48.122;11.422;2022-09-03T04:09:36;3.37;;;2.87;;
40044;SDS011;25735;48.122;11.422;2022-09-03T04:12:02;3.42;;;2.70;;
40044;SDS011;25735;48.122;11.422;2022-09-03T04:14:29;3.08;;;2.75;;
40044;SDS011;25735;48.122;11.422;2022-09-03T04:16:55;3.20;;;2.90;;
40044;SDS011;25735;48.122;11.422;2022-09-03T04:19:20;5.47;;;2.85;;
40044;SDS011;25735;48.122;11.422;2022-09-03T04:21:45;3.60;;;2.90;;
40044;SDS011;25735;48.122;11.422;2022-09-03T04:24:11;3.05;;;2.50;;
40044;SDS011;25735;48.122;11.422;2022-09-03T04:26:36;2.65;;;2.45;;
40044;SDS011;25735;48.122;11.422;2022-09-03T04:29:03;4.60;;;3.05;;
40044;SDS011;25735;48.122;11.422;2022-09-03T04:31:28;3.25;;;2.78;;
40044;SDS011;25735;48.122;11.422;2022-09-03T04:33:53;3.20;;;2.85;;
40044;SDS011;25735;48.122;11.422;2022-09-03T04:36:23;2.80;;;2.20;;
40044;SDS011;25735;48.122;11.422;2022-09-03T04:38:49;3.03;;;2.72;;
40044;SDS011;25735;48.122;11.422;2022-09-03T04:41:16;3.08;;;2.80;;
40044;SDS011;25735;48.122;11.422;2022-09-03T04:43:42;2.72;;;2.53;;
40044;SDS011;25735;48.122;11.422;2022-09-03T04:46:07;3.58;;;2.40;;
40044;SDS011;25735;48.122;11.422;2022-09-03T04:48:33;2.95;;;2.58;;
40044;SDS011;25735;48.122;11.422;2022-09-03T04:51:11;3.03;;;2.50;;
40044;SDS011;25735;48.122;11.422;2022-09-03T04:53:38;4.10;;;2.63;;
40044;SDS011;25735;48.122;11.422;2022-09-03T04:56:11;3.13;;;2.40;;
40044;SDS011;25735;48.122;11.422;2022-09-03T04:58:36;3.08;;;2.13;;
40044;SDS011;25735;48.122;11.422;2022-09-03T05:01:06;3.65;;;2.15;;
40044;SDS011;25735;48.122;11.422;2022-09-03T05:03:31;3.72;;;2.47;;
40044;SDS011;25735;48.122;11.422;2022-09-03T05:05:56;6.10;;;2.50;;
40044;SDS011;25735;48.122;11.422;2022-09-03T05:08:22;3.50;;;3.03;;
40044;SDS011;25735;48.122;11.422;2022-09-03T05:10:47;3.95;;;3.10;;
40044;SDS011;25735;48.122;11.422;2022-09-03T05:13:12;2.83;;;2.50;;
40044;SDS011;25735;48.122;11.422;2022-09-03T05:15:38;4.30;;;2.80;;
40044;SDS011;25735;48.122;11.422;2022-09-03T05:18:03;3.92;;;2.75;;
40044;SDS011;25735;48.122;11.422;2022-09-03T05:20:28;4.87;;;2.60;;
40044;SDS011;25735;48.122;11.422;2022-09-03T05:22:55;5.18;;;2.28;;
40044;SDS011;25735;48.122;11.422;2022-09-03T05:25:20;3.95;;;2.67;;
40044;SDS011;25735;48.122;11.422;2022-09-03T05:27:46;3.13;;;2.92;;
40044;SDS011;25735;48.122;11.422;2022-09-03T05:30:12;2.30;;;2.10;;
40044;SDS011;25735;48.122;11.422;2022-09-03T05:32:38;3.38;;;3.08;;
40044;SDS011;25735;48.122;11.422;2022-09-03T05:35:03;2.97;;;2.22;;
40044;SDS011;25735;48.122;11.422;2022-09-03T05:37:28;4.93;;;3.50;;
40044;SDS011;25735;48.122;11.422;2022-09-03T05:39:53;2.43;;;2.23;;
40044;SDS011;25735;48.122;11.422;2022-09-03T05:42:19;3.10;;;2.90;;
40044;SDS011;25735;48.122;11.422;2022-09-03T05:44:45;3.35;;;2.22;;
40044;SDS011;25735;48.122;11.422;2022-09-03T05:47:13;4.30;;;2.30;;
40044;SDS011;25735;48.122;11.422;2022-09-03T05:49:38;3.10;;;2.80;;
40044;SDS011;25735;48.122;11.422;2022-09-03T05:52:04;3.53;;;2.55;;
40044;SDS011;25735;48.122;11.422;2022-09-03T05:54:29;3.25;;;2.40;;
40044;SDS011;25735;48.122;11.422;2022-09-03T05:56:54;4.10;;;2.07;;
40044;SDS011;25735;48.122;11.422;2022-09-03T05:59:19;3.13;;;2.50;;
40044;SDS011;25735;48.122;11.422;2022-09-03T06:01:45;3.30;;;3.00;;
40044;SDS011;25735;48.122;11.422;2022-09-03T06:04:11;3.10;;;2.25;;
40044;SDS011;25735;48.122;11.422;2022-09-03T06:06:37;4.40;;;3.25;;
40044;SDS011;25735;48.122;11.422;2022-09-03T06:09:10;4.82;;;2.97;;
40044;SDS011;25735;48.122;11.422;2022-09-03T06:11:36;4.35;;;2.90;;
40044;SDS011;25735;48.122;11.422;2022-09-03T06:14:02;4.72;;;2.63;;
40044;SDS011;25735;48.122;11.422;2022-09-03T06:16:32;3.03;;;2.70;;
40044;SDS011;25735;48.122;11.422;2022-09-03T06:18:58;3.42;;;2.65;;
40044;SDS011;25735;48.122;11.422;2022-09-03T06:21:23;5.05;;;3.15;;
40044;SDS011;25735;48.122;11.422;2022-09-03T06:23:49;3.13;;;2.83;;
40044;SDS011;25735;48.122;11.422;2022-09-03T06:26:15;4.20;;;3.30;;
40044;SDS011;25735;48.122;11.422;2022-09-03T06:28:41;3.03;;;2.67;;
40044;SDS011;25735;48.122;11.422;2022-09-03T06:31:09;3.17;;;2.67;;
40044;SDS011;25735;48.122;11.422;2022-09-03T06:33:35;3.17;;;2.80;;
40044;SDS011;25735;48.122;11.422;2022-09-03T06:36:01;2.97;;;2.58;;
40044;SDS011;25735;48.122;11.422;2022-09-03T06:38:28;5.70;;;2.97;;
40044;SDS011;25735;48.122;11.422;2022-09-03T06:40:54;5.25;;;2.95;;
40044;SDS011;25735;48.122;11.422;2022-09-03T06:43:20;5.30;;;2.75;;
40044;SDS011;25735;48.122;11.422;2022-09-03T06:45:55;4.32;;;3.05;;
40044;SDS011;25735;48.122;11.422;2022-09-03T06:48:20;5.18;;;2.50;;
40044;SDS011;25735;48.122;11.422;2022-09-03T06:50:58;3.77;;;2.80;;
40044;SDS011;25735;48.122;11.422;2022-09-03T06:53:25;2.95;;;2.70;;
40044;SDS011;25735;48.122;11.422;2022-09-03T06:55:51;5.82;;;2.65;;
40044;SDS011;25735;48.122;11.422;2022-09-03T06:58:17;2.63;;;2.42;;
40044;SDS011;25735;48.122;11.422;2022-09-03T07:00:42;2.80;;;2.60;;
40044;SDS011;25735;48.122;11.422;2022-09-03T07:03:09;3.50;;;3.10;;
40044;SDS011;25735;48.122;11.422;2022-09-03T07:05:34;5.18;;;2.70;;
40044;SDS011;25735;48.122;11.422;2022-09-03T07:07:59;2.78;;;2.38;;
40044;SDS011;25735;48.122;11.422;2022-09-03T07:10:24;3.30;;;2.30;;
40044;SDS011;25735;48.122;11.422;2022-09-03T07:12:52;3.08;;;2.80;;
40044;SDS011;25735;48.122;11.422;2022-09-03T07:15:17;3.92;;;3.05;;
40044;SDS011;25735;48.122;11.422;2022-09-03T07:17:44;2.67;;;2.40;;
40044;SDS011;25735;48.122;11.422;2022-09-03T07:20:09;2.95;;;2.50;;
40044;SDS011;25735;48.122;11.422;2022-09-03T07:22:34;3.13;;;2.57;;
40044;SDS011;25735;48.122;11.422;2022-09-03T07:24:59;2.45;;;2.28;;
40044;SDS011;25735;48.122;11.422;2022-09-03T07:27:25;3.83;;;2.67;;
40044;SDS011;25735;48.122;11.422;2022-09-03T07:29:51;3.17;;;2.87;;
40044;SDS011;25735;48.122;11.422;2022-09-03T07:32:16;3.22;;;2.90;;
40044;SDS011;25735;48.122;11.422;2022-09-03T07:34:41;3.87;;;2.60;;
40044;SDS011;25735;48.122;11.422;2022-09-03T07:37:06;4.13;;;2.50;;
40044;SDS011;25735;48.122;11.422;2022-09-03T07:39:31;2.40;;;2.20;;
40044;SDS011;25735;48.122;11.422;2022-09-03T07:41:57;5.05;;;2.95;;
40044;SDS011;25735;48.122;11.422;2022-09-03T07:44:23;3.85;;;2.65;;
40044;SDS011;25735;48.122;11.422;2022-09-03T07:46:48;2.40;;;2.20;;
40044;SDS011;25735;48.122;11.422;2022-09-03T07:49:14;3.22;;;2.50;;
40044;SDS011;25735;48.122;11.422;2022-09-03T07:51:40;3.17;;;2.75;;
40044;SDS011;25735;48.122;11.422;2022-09-03T07:54:06;3.65;;;2.95;;
40044;SDS011;25735;48.122;11.422;2022-09-03T07:56:32;2.83;;;2.20;;
40044;SDS011;25735;48.122;11.422;2022-09-03T07:58:59;2.95;;;2.63;;
40044;SDS011;25735;48.122;11.422;2022-09-03T08:01:25;3.58;;;2.45;;
40044;SDS011;25735;48.122;11.422;2022-09-03T08:03:52;3.10;;;2.80;;
40044;SDS011;25735;48.122;11.422;2022-09-03T08:06:19;7.55;;;2.90;;
40044;SDS011;25735;48.122;11.422;2022-09-03T08:08:44;5.22;;;2.35;;
40044;SDS011;25735;48.122;11.422;2022-09-03T08:11:10;5.75;;;2.70;;
40044;SDS011;25735;48.122;11.422;2022-09-03T08:13:39;2.38;;;2.17;;
40044;SDS011;25735;48.122;11.422;2022-09-03T08:16:06;2.67;;;2.47;;
40044;SDS011;25735;48.122;11.422;2022-09-03T08:18:32;3.13;;;2.50;;
40044;SDS011;25735;48.122;11.422;2022-09-03T08:21:01;2.75;;;2.55;;
40044;SDS011;25735;48.122;11.422;2022-09-03T08:23:27;2.78;;;2.58;;
40044;SDS011;25735;48.122;11.422;2022-09-03T08:25:59;4.60;;;3.08;;
40044;SDS011;25735;48.122;11.422;2022-09-03T08:28:24;2.47;;;2.28;;
40044;SDS011;25735;48.122;11.422;2022-09-03T08:30:50;3.78;;;3.30;;
40044;SDS011;25735;48.122;11.422;2022-09-03T08:33:15;5.67;;;2.50;;
40044;SDS011;25735;48.122;11.422;2022-09-03T08:35:40;2.70;;;2.50;;
40044;SDS011;25735;48.122;11.422;2022-09-03T08:38:05;3.28;;;2.90;;
40044;SDS011;25735;48.122;11.422;2022-09-03T08:40:32;3.05;;;2.70;;
40044;SDS011;25735;48.122;11.422;2022-09-03T08:43:11;3.83;;;3.15;;
40044;SDS011;25735;48.122;11.422;2022-09-03T08:45:41;3.47;;;2.83;;
40044;SDS011;25735;48.122;11.422;2022-09-03T08:48:08;5.65;;;2.70;;
40044;SDS011;25735;48.122;11.422;2022-09-03T08:50:38;5.05;;;3.22;;
40044;SDS011;25735;48.122;11.422;2022-09-03T08:53:07;3.73;;;3.03;;
40044;SDS011;25735;48.122;11.422;2022-09-03T08:58:05;5.13;;;2.88;;
40044;SDS011;25735;48.122;11.422;2022-09-03T09:00:41;2.72;;;2.40;;
40044;SDS011;25735;48.122;11.422;2022-09-03T09:11:09;2.53;;;2.10;;
40044;SDS011;25735;48.122;11.422;2022-09-03T09:13:44;2.42;;;2.22;;
40044;SDS011;25735;48.122;11.422;2022-09-03T09:16:14;2.17;;;1.92;;
40044;SDS011;25735;48.122;11.422;2022-09-03T09:21:29;1.75;;;1.50;;
40044;SDS011;25735;48.122;11.422;2022-09-03T09:23:56;2.42;;;2.22;;
40044;SDS011;25735;48.122;11.422;2022-09-03T09:26:24;1.88;;;1.77;;
40044;SDS011;25735;48.122;11.422;2022-09-03T09:28:54;3.07;;;2.00;;
40044;SDS011;25735;48.122;11.422;2022-09-03T09:31:21;1.65;;;1.55;;
40044;SDS011;25735;48.122;11.422;2022-09-03T09:33:46;1.33;;;1.23;;
40044;SDS011;25735;48.122;11.422;2022-09-03T09:36:12;1.50;;;1.40;;
40044;SDS011;25735;48.122;11.422;2022-09-03T09:38:40;3.00;;;1.83;;
40044;SDS011;25735;48.122;11.422;2022-09-03T09:43:40;1.80;;;1.70;;
40044;SDS011;25735;48.122;11.422;2022-09-03T09:46:08;1.60;;;1.50;;
40044;SDS011;25735;48.122;11.422;2022-09-03T09:48:36;2.70;;;1.60;;
40044;SDS011;25735;48.122;11.422;2022-09-03T09:51:16;1.27;;;1.17;;
40044;SDS011;25735;48.122;11.422;2022-09-03T09:53:41;2.05;;;1.10;;
40044;SDS011;25735;48.122;11.422;2022-09-03T09:56:08;3.22;;;1.42;;
40044;SDS011;25735;48.122;11.422;2022-09-03T09:58:44;1.35;;;1.25;;
40044;SDS011;25735;48.122;11.422;2022-09-03T10:01:10;1.43;;;1.33;;
40044;SDS011;25735;48.122;11.422;2022-09-03T10:03:39;1.30;;;1.20;;
40044;SDS011;25735;48.122;11.422;2022-09-03T10:06:06;1.38;;;1.27;;
40044;SDS011;25735;48.122;11.422;2022-09-03T10:08:52;1.30;;;1.20;;
40044;SDS011;25735;48.122;11.422;2022-09-03T10:11:18;1.48;;;1.38;;
40044;SDS011;25735;48.122;11.422;2022-09-03T10:13:45;2.00;;;1.20;;
40044;SDS011;25735;48.122;11.422;2022-09-03T10:16:18;1.10;;;0.95;;
40044;SDS011;25735;48.122;11.422;2022-09-03T10:18:52;1.20;;;1.15;;
40044;SDS011;25735;48.122;11.422;2022-09-03T10:21:26;1.17;;;1.08;;
40044;SDS011;25735;48.122;11.422;2022-09-03T10:24:18;0.95;;;0.95;;
40044;SDS011;25735;48.122;11.422;2022-09-03T10:26:50;1.38;;;1.27;;
40044;SDS011;25735;48.122;11.422;2022-09-03T10:29:17;1.17;;;1.07;;
40044;SDS011;25735;48.122;11.422;2022-09-03T10:31:46;1.90;;;1.10;;
40044;SDS011;25735;48.122;11.422;2022-09-03T10:34:21;2.22;;;1.55;;
40044;SDS011;25735;48.122;11.422;2022-09-03T10:50:08;1.52;;;1.30;;
40044;SDS011;25735;48.122;11.422;2022-09-03T10:58:31;0.98;;;0.98;;
40044;SDS011;25735;48.122;11.422;2022-09-03T11:01:02;1.48;;;1.38;;
40044;SDS011;25735;48.122;11.422;2022-09-03T11:03:46;1.35;;;1.25;;
40044;SDS011;25735;48.122;11.422;2022-09-03T11:08:50;1.20;;;1.10;;
40044;SDS011;25735;48.122;11.422;2022-09-03T11:11:19;0.90;;;0.90;;
40044;SDS011;25735;48.122;11.422;2022-09-03T11:16:21;0.90;;;0.90;;
40044;SDS011;25735;48.122;11.422;2022-09-03T11:18:50;0.93;;;0.93;;
40044;SDS011;25735;48.122;11.422;2022-09-03T11:21:19;1.70;;;1.20;;
40044;SDS011;25735;48.122;11.422;2022-09-03T11:23:45;1.00;;;1.00;;
40044;SDS011;25735;48.122;11.422;2022-09-03T11:26:15;1.23;;;1.15;;
40044;SDS011;25735;48.122;11.422;2022-09-03T11:33:57;1.00;;;1.00;;
40044;SDS011;25735;48.122;11.422;2022-09-03T11:36:26;0.73;;;0.73;;
40044;SDS011;25735;48.122;11.422;2022-09-03T11:38:52;0.90;;;0.90;;
40044;SDS011;25735;48.122;11.422;2022-09-03T11:41:27;1.50;;;1.23;;
40044;SDS011;25735;48.122;11.422;2022-09-03T11:43:58;1.00;;;0.90;;
40044;SDS011;25735;48.122;11.422;2022-09-03T11:46:34;1.75;;;1.35;;
40044;SDS011;25735;48.122;11.422;2022-09-03T11:49:09;1.45;;;0.98;;
40044;SDS011;25735;48.122;11.422;2022-09-03T11:51:35;0.93;;;0.90;;
40044;SDS011;25735;48.122;11.422;2022-09-03T11:54:03;0.73;;;0.73;;
40044;SDS011;25735;48.122;11.422;2022-09-03T11:56:33;0.80;;;0.80;;
40044;SDS011;25735;48.122;11.422;2022-09-03T12:01:31;0.80;;;0.80;;
40044;SDS011;25735;48.122;11.422;2022-09-03T12:03:59;1.25;;;1.15;;
40044;SDS011;25735;48.122;11.422;2022-09-03T12:19:24;0.80;;;0.80;;
40044;SDS011;25735;48.122;11.422;2022-09-03T12:21:51;0.73;;;0.73;;
40044;SDS011;25735;48.122;11.422;2022-09-03T12:24:17;0.88;;;0.57;;
40044;SDS011;25735;48.122;11.422;2022-09-03T12:26:44;0.73;;;0.73;;
40044;SDS011;25735;48.122;11.422;2022-09-03T12:29:19;0.70;;;0.70;;
40044;SDS011;25735;48.122;11.422;2022-09-03T12:31:46;1.30;;;0.80;;
40044;SDS011;25735;48.122;11.422;2022-09-03T12:34:14;0.70;;;0.70;;
40044;SDS011;25735;48.122;11.422;2022-09-03T12:36:41;0.50;;;0.50;;
40044;SDS011;25735;48.122;11.422;2022-09-03T12:39:08;0.65;;;0.65;;
40044;SDS011;25735;48.122;11.422;2022-09-03T12:41:33;1.00;;;0.80;;
40044;SDS011;25735;48.122;11.422;2022-09-03T12:43:58;0.60;;;0.60;;
40044;SDS011;25735;48.122;11.422;2022-09-03T12:46:25;0.93;;;0.68;;
40044;SDS011;25735;48.122;11.422;2022-09-03T12:48:52;1.50;;;0.88;;
40044;SDS011;25735;48.122;11.422;2022-09-03T12:51:17;1.42;;;0.80;;
40044;SDS011;25735;48.122;11.422;2022-09-03T12:53:42;1.00;;;0.73;;
40044;SDS011;25735;48.122;11.422;2022-09-03T12:56:07;1.00;;;0.90;;
40044;SDS011;25735;48.122;11.422;2022-09-03T12:58:35;1.48;;;1.10;;
40044;SDS011;25735;48.122;11.422;2022-09-03T13:03:29;1.27;;;1.00;;
40044;SDS011;25735;48.122;11.422;2022-09-03T13:06:02;0.95;;;0.90;;
40044;SDS011;25735;48.122;11.422;2022-09-03T13:08:43;0.90;;;0.90;;
40044;SDS011;25735;48.122;11.422;2022-09-03T13:11:09;0.88;;;0.88;;
40044;SDS011;25735;48.122;11.422;2022-09-03T13:13:34;0.80;;;0.80;;
40044;SDS011;25735;48.122;11.422;2022-09-03T13:16:13;0.80;;;0.80;;
40044;SDS011;25735;48.122;11.422;2022-09-03T13:18:45;0.80;;;0.80;;
40044;SDS011;25735;48.122;11.422;2022-09-03T13:21:14;0.90;;;0.90;;
40044;SDS011;25735;48.122;11.422;2022-09-03T13:26:13;0.80;;;0.80;;
40044;SDS011;25735;48.122;11.422;2022-09-03T13:28:50;0.77;;;0.77;;
40044;SDS011;25735;48.122;11.422;2022-09-03T13:31:37;1.10;;;0.95;;
40044;SDS011;25735;48.122;11.422;2022-09-03T13:34:08;0.90;;;0.90;;
40044;SDS011;25735;48.122;11.422;2022-09-03T13:36:40;1.80;;;0.90;;
40044;SDS011;25735;48.122;11.422;2022-09-03T13:41:40;1.20;;;1.10;;
40044;SDS011;25735;48.122;11.422;2022-09-03T13:44:13;1.05;;;0.90;;
40044;SDS011;25735;48.122;11.422;2022-09-03T13:52:10;1.58;;;0.88;;
40044;SDS011;25735;48.122;11.422;2022-09-03T13:54:41;1.75;;;0.90;;
40044;SDS011;25735;48.122;11.422;2022-09-03T13:59:59;1.30;;;1.20;;
40044;SDS011;25735;48.122;11.422;2022-09-03T14:05:00;1.00;;;1.00;;
40044;SDS011;25735;48.122;11.422;2022-09-03T14:07:33;2.42;;;1.33;;
40044;SDS011;25735;48.122;11.422;2022-09-03T14:10:04;4.78;;;1.90;;
40044;SDS011;25735;48.122;11.422;2022-09-03T14:15:06;13.30;;;2.95;;
40044;SDS011;25735;48.122;11.422;2022-09-03T14:17:46;19.85;;;5.15;;
40044;SDS011;25735;48.122;11.422;2022-09-03T14:20:29;9.48;;;3.00;;
40044;SDS011;25735;48.122;11.422;2022-09-03T14:23:03;5.55;;;1.98;;
40044;SDS011;25735;48.122;11.422;2022-09-03T14:25:29;3.92;;;2.25;;
40044;SDS011;25735;48.122;11.422;2022-09-03T14:27:54;4.00;;;1.50;;
40044;SDS011;25735;48.122;11.422;2022-09-03T14:30:43;3.13;;;1.60;;
40044;SDS011;25735;48.122;11.422;2022-09-03T14:33:19;2.92;;;1.75;;
40044;SDS011;25735;48.122;11.422;2022-09-03T14:38:34;4.80;;;1.60;;
40044;SDS011;25735;48.122;11.422;2022-09-03T15:01:32;2.33;;;1.95;;
40044;SDS011;25735;48.122;11.422;2022-09-03T15:09:37;2.22;;;2.03;;
40044;SDS011;25735;48.122;11.422;2022-09-03T15:12:24;4.55;;;2.00;;
40044;SDS011;25735;48.122;11.422;2022-09-03T15:14:56;3.38;;;1.85;;
40044;SDS011;25735;48.122;11.422;2022-09-03T15:27:44;4.13;;;1.80;;
40044;SDS011;25735;48.122;11.422;2022-09-03T15:30:15;6.70;;;1.40;;
40044;SDS011;25735;48.122;11.422;2022-09-03T15:38:34;2.35;;;1.48;;
40044;SDS011;25735;48.122;11.422;2022-09-03T15:41:03;2.22;;;1.60;;
40044;SDS011;25735;48.122;11.422;2022-09-03T15:43:31;3.05;;;1.33;;
40044;SDS011;25735;48.122;11.422;2022-09-03T15:46:04;3.40;;;1.77;;
40044;SDS011;25735;48.122;11.422;2022-09-03T15:48:49;1.88;;;1.40;;
40044;SDS011;25735;48.122;11.422;2022-09-03T15:54:13;2.60;;;1.40;;
40044;SDS011;25735;48.122;11.422;2022-09-03T15:59:30;4.15;;;1.90;;
40044;SDS011;25735;48.122;11.422;2022-09-03T16:01:58;3.88;;;1.70;;
40044;SDS011;25735;48.122;11.422;2022-09-03T16:04:35;2.75;;;1.75;;
40044;SDS011;25735;48.122;11.422;2022-09-03T16:07:15;4.35;;;1.55;;
40044;SDS011;25735;48.122;11.422;2022-09-03T16:14:54;1.88;;;1.30;;
40044;SDS011;25735;48.122;11.422;2022-09-03T16:17:24;3.05;;;1.73;;
40044;SDS011;25735;48.122;11.422;2022-09-03T16:27:19;2.03;;;1.20;;
40044;SDS011;25735;48.122;11.422;2022-09-03T16:30:32;1.90;;;1.20;;
40044;SDS011;25735;48.122;11.422;2022-09-03T16:35:20;5.35;;;1.50;;
40044;SDS011;25735;48.122;11.422;2022-09-03T16:37:51;1.73;;;1.25;;
40044;SDS011;25735;48.122;11.422;2022-09-03T16:40:21;5.50;;;1.88;;
40044;SDS011;25735;48.122;11.422;2022-09-03T16:43:02;3.03;;;1.77;;
40044;SDS011;25735;48.122;11.422;2022-09-03T16:45:43;1.42;;;1.17;;
40044;SDS011;25735;48.122;11.422;2022-09-03T17:01:09;1.70;;;1.60;;
40044;SDS011;25735;48.122;11.422;2022-09-03T17:06:12;1.65;;;1.55;;
40044;SDS011;25735;48.122;11.422;2022-09-03T17:11:17;1.85;;;1.38;;
40044;SDS011;25735;48.122;11.422;2022-09-03T17:13:55;1.50;;;1.40;;
40044;SDS011;25735;48.122;11.422;2022-09-03T17:19:30;6.20;;;2.05;;
40044;SDS011;25735;48.122;11.422;2022-09-03T17:24:28;4.03;;;1.58;;
40044;SDS011;25735;48.122;11.422;2022-09-03T17:32:20;2.90;;;1.50;;
40044;SDS011;25735;48.122;11.422;2022-09-03T17:39:50;2.03;;;1.75;;
40044;SDS011;25735;48.122;11.422;2022-09-03T17:42:28;2.38;;;1.58;;
40044;SDS011;25735;48.122;11.422;2022-09-03T17:45:02;1.73;;;1.50;;
40044;SDS011;25735;48.122;11.422;2022-09-03T17:50:19;1.88;;;1.52;;
40044;SDS011;25735;48.122;11.422;2022-09-03T17:52:55;2.55;;;1.35;;
40044;SDS011;25735;48.122;11.422;2022-09-03T17:58:13;3.70;;;1.50;;
40044;SDS011;25735;48.122;11.422;2022-09-03T18:03:23;1.42;;;1.30;;
40044;SDS011;25735;48.122;11.422;2022-09-03T18:05:52;1.88;;;1.48;;
40044;SDS011;25735;48.122;11.422;2022-09-03T18:09:08;1.60;;;1.30;;
40044;SDS011;25735;48.122;11.422;2022-09-03T18:16:34;2.92;;;2.50;;
40044;SDS011;25735;48.122;11.422;2022-09-03T18:21:44;1.42;;;1.17;;
40044;SDS011;25735;48.122;11.422;2022-09-03T18:24:42;4.53;;;2.00;;
40044;SDS011;25735;48.122;11.422;2022-09-03T18:27:42;2.00;;;1.80;;
40044;SDS011;25735;48.122;11.422;2022-09-03T18:30:27;2.05;;;1.85;;
40044;SDS011;25735;48.122;11.422;2022-09-03T18:33:11;4.68;;;2.58;;
40044;SDS011;25735;48.122;11.422;2022-09-03T18:35:54;2.67;;;1.83;;
40044;SDS011;25735;48.122;11.422;2022-09-03T18:38:40;3.33;;;1.92;;
40044;SDS011;25735;48.122;11.422;2022-09-03T18:44:35;2.17;;;1.80;;
40044;SDS011;25735;48.122;11.422;2022-09-03T18:47:28;1.98;;;1.70;;
40044;SDS011;25735;48.122;11.422;2022-09-03T18:50:20;1.80;;;1.70;;
40044;SDS011;25735;48.122;11.422;2022-09-03T18:53:21;2.53;;;1.75;;